createdAt,value
2022-09-03T00:01:10.458Z,15.30
2022-09-03T00:04:02.159Z,15.30
2022-09-03T00:06:45.692Z,15.30
2022-09-03T00:09:21.642Z,15.30
2022-09-03T00:12:06.070Z,15.30
2022-09-03T00:14:41.503Z,15.30
2022-09-03T00:17:41.220Z,15.30
2022-09-03T00:20:12.893Z,15.30
2022-09-03T00:22:43.755Z,15.20
2022-09-03T00:25:17.721Z,15.20
2022-09-03T00:27:47.455Z,15.30
2022-09-03T00:30:17.294Z,15.20
2022-09-03T00:33:01.464Z,15.20
2022-09-03T00:35:33.730Z,15.10
2022-09-03T00:38:01.082Z,15.10
2022-09-03T00:40:51.140Z,15.10
2022-09-03T00:43:26.861Z,15.10
2022-09-03T00:46:34.844Z,15.00
2022-09-03T00:49:23.278Z,15.10
2022-09-03T00:51:50.044Z,15.00
2022-09-03T00:54:35.650Z,15.00
2022-09-03T00:57:25.433Z,15.00
2022-09-03T01:00:09.743Z,15.00
2022-09-03T01:02:48.370Z,15.00
2022-09-03T01:05:35.121Z,15.00
2022-09-03T01:08:14.099Z,15.00
2022-09-03T01:11:11.708Z,15.00
2022-09-03T01:13:43.739Z,15.00
2022-09-03T01:16:35.963Z,15.00
2022-09-03T01:19:40.711Z,15.00
2022-09-03T01:22:34.631Z,14.90
2022-09-03T01:25:16.322Z,14.90
2022-09-03T01:28:01.777Z,14.90
2022-09-03T01:30:33.745Z,14.90
2022-09-03T01:33:12.423Z,14.90
2022-09-03T01:35:49.731Z,14.90
2022-09-03T01:38:31.913Z,14.90
2022-09-03T01:41:22.119Z,14.90
2022-09-03T01:44:07.659Z,15.00
2022-09-03T01:46:40.895Z,14.90
2022-09-03T01:49:16.577Z,14.90
2022-09-03T01:51:44.002Z,14.90
2022-09-03T01:54:38.022Z,14.90
2022-09-03T01:57:35.704Z,15.00
2022-09-03T02:00:06.255Z,14.90
2022-09-03T02:02:33.099Z,14.90
2022-09-03T02:05:04.681Z,14.90
2022-09-03T02:07:34.833Z,14.90
2022-09-03T02:10:03.923Z,14.90
2022-09-03T02:12:33.627Z,14.90
2022-09-03T02:15:05.629Z,14.90
2022-09-03T02:17:33.664Z,14.90
2022-09-03T02:20:05.367Z,14.90
2022-09-03T02:22:33.073Z,14.80
2022-09-03T02:25:00.739Z,14.90
2022-09-03T02:27:27.567Z,14.80
2022-09-03T02:29:54.421Z,14.80
2022-09-03T02:32:21.233Z,14.90
2022-09-03T02:34:48.064Z,14.90
2022-09-03T02:37:16.511Z,14.90
2022-09-03T02:39:43.387Z,14.80
2022-09-03T02:42:13.378Z,14.80
2022-09-03T02:44:48.420Z,14.80
2022-09-03T02:47:15.193Z,14.80
2022-09-03T02:49:41.965Z,14.80
2022-09-03T02:52:10.414Z,14.90
2022-09-03T02:54:38.486Z,14.80
2022-09-03T02:57:08.675Z,14.80
2022-09-03T02:59:36.185Z,14.80
2022-09-03T03:02:04.310Z,14.70
2022-09-03T03:04:32.462Z,14.80
2022-09-03T03:06:59.307Z,14.70
2022-09-03T03:09:26.366Z,14.70
2022-09-03T03:11:53.199Z,14.70
2022-09-03T03:14:19.976Z,14.70
2022-09-03T03:16:46.792Z,14.70
2022-09-03T03:19:13.622Z,14.70
2022-09-03T03:21:40.409Z,14.60
2022-09-03T03:24:07.710Z,14.60
2022-09-03T03:26:34.635Z,14.60
2022-09-03T03:29:02.890Z,14.60
2022-09-03T03:31:29.697Z,14.60
2022-09-03T03:33:59.468Z,14.50
2022-09-03T03:36:28.778Z,14.50
2022-09-03T03:38:57.584Z,14.50
2022-09-03T03:41:35.653Z,14.50
2022-09-03T03:44:05.298Z,14.50
2022-09-03T03:46:34.551Z,14.50
2022-09-03T03:49:01.644Z,14.40
2022-09-03T03:51:28.978Z,14.40
2022-09-03T03:54:00.191Z,14.40
2022-09-03T03:56:28.960Z,14.30
2022-09-03T03:58:56.363Z,14.40
2022-09-03T04:01:25.793Z,14.30
2022-09-03T04:03:55.624Z,14.30
2022-09-03T04:06:23.707Z,14.20
2022-09-03T04:08:50.820Z,14.20
2022-09-03T04:11:20.348Z,14.20
2022-09-03T04:13:47.698Z,14.20
2022-09-03T04:16:17.426Z,14.10
2022-09-03T04:18:45.155Z,14.00
2022-09-03T04:21:14.526Z,14.00
2022-09-03T04:23:43.708Z,14.00
2022-09-03T04:26:13.187Z,13.90
2022-09-03T04:28:40.541Z,13.90
2022-09-03T04:31:10.612Z,13.80
2022-09-03T04:33:38.463Z,13.70
2022-09-03T04:36:10.578Z,13.80
2022-09-03T04:38:39.981Z,13.70
2022-09-03T04:41:08.575Z,13.70
2022-09-03T04:43:35.759Z,13.70
2022-09-03T04:46:05.922Z,13.70
2022-09-03T04:48:34.671Z,13.70
2022-09-03T04:51:10.687Z,13.70
2022-09-03T04:53:40.618Z,13.60
2022-09-03T04:56:21.385Z,13.60
2022-09-03T04:58:51.159Z,13.70
2022-09-03T05:01:23.400Z,13.70
2022-09-03T05:03:50.560Z,13.60
2022-09-03T05:06:17.389Z,13.60
2022-09-03T05:08:54.540Z,13.60
2022-09-03T05:11:22.363Z,13.60
2022-09-03T05:13:50.641Z,13.60
2022-09-03T05:16:18.991Z,13.70
2022-09-03T05:18:47.925Z,13.70
2022-09-03T05:21:17.464Z,13.70
2022-09-03T05:23:46.402Z,13.60
2022-09-03T05:26:18.563Z,13.70
2022-09-03T05:28:46.896Z,13.70
2022-09-03T05:31:21.402Z,13.70
2022-09-03T05:33:53.616Z,13.70
2022-09-03T05:36:25.008Z,13.70
2022-09-03T05:38:52.599Z,13.70
2022-09-03T05:41:19.708Z,13.70
2022-09-03T05:43:51.699Z,13.80
2022-09-03T05:46:18.561Z,13.80
2022-09-03T05:48:45.765Z,13.90
2022-09-03T05:51:16.470Z,13.90
2022-09-03T05:53:45.866Z,13.90
2022-09-03T05:56:24.998Z,14.00
2022-09-03T05:58:54.194Z,14.00
2022-09-03T06:01:26.258Z,14.10
2022-09-03T06:04:00.465Z,14.20
2022-09-03T06:06:28.624Z,14.30
2022-09-03T06:08:57.078Z,14.40
2022-09-03T06:11:24.933Z,14.40
2022-09-03T06:13:51.703Z,14.40
2022-09-03T06:16:18.545Z,14.50
2022-09-03T06:18:55.957Z,14.50
2022-09-03T06:21:23.330Z,14.60
2022-09-03T06:23:51.647Z,14.70
2022-09-03T06:26:19.434Z,14.80
2022-09-03T06:28:46.959Z,14.80
2022-09-03T06:31:16.131Z,14.90
2022-09-03T06:33:43.913Z,14.90
2022-09-03T06:36:13.387Z,15.00
2022-09-03T06:38:41.176Z,15.10
2022-09-03T06:41:14.222Z,15.20
2022-09-03T06:43:42.558Z,15.20
2022-09-03T06:46:12.822Z,15.30
2022-09-03T06:48:40.677Z,15.30
2022-09-03T06:51:11.996Z,15.50
2022-09-03T06:53:42.442Z,15.60
2022-09-03T06:56:14.778Z,15.70
2022-09-03T06:58:44.357Z,15.70
2022-09-03T07:01:11.220Z,15.80
2022-09-03T07:03:39.971Z,15.80
2022-09-03T07:06:12.247Z,16.00
2022-09-03T07:08:39.577Z,16.00
2022-09-03T07:11:09.246Z,16.10
2022-09-03T07:13:37.873Z,16.20
2022-09-03T07:16:07.569Z,16.30
2022-09-03T07:18:34.869Z,16.40
2022-09-03T07:21:06.414Z,16.40
2022-09-03T07:23:34.131Z,16.40
2022-09-03T07:26:04.589Z,16.50
2022-09-03T07:28:31.856Z,16.60
2022-09-03T07:31:11.728Z,16.70
2022-09-03T07:33:42.423Z,16.70
2022-09-03T07:36:15.673Z,16.90
2022-09-03T07:38:45.502Z,17.00
2022-09-03T07:41:21.808Z,17.00
2022-09-03T07:43:55.983Z,17.10
2022-09-03T07:46:25.913Z,17.30
2022-09-03T07:48:59.718Z,17.40
2022-09-03T07:51:28.310Z,17.40
2022-09-03T07:53:57.542Z,17.40
2022-09-03T07:56:25.879Z,17.30
2022-09-03T07:58:53.400Z,17.20
2022-09-03T08:01:22.338Z,17.30
2022-09-03T08:03:51.461Z,17.40
2022-09-03T08:06:20.931Z,17.50
2022-09-03T08:08:48.010Z,17.50
2022-09-03T08:11:19.798Z,17.50
2022-09-03T08:13:54.463Z,17.60
2022-09-03T08:16:21.358Z,17.60
2022-09-03T08:18:48.139Z,17.80
2022-09-03T08:21:17.814Z,18.00
2022-09-03T08:23:46.919Z,18.00
2022-09-03T08:26:15.193Z,18.20
2022-09-03T08:28:43.098Z,18.30
2022-09-03T08:31:16.091Z,18.50
2022-09-03T08:33:45.754Z,18.70
2022-09-03T08:36:18.203Z,18.70
2022-09-03T08:38:46.583Z,18.70
2022-09-03T08:41:43.659Z,18.50
2022-09-03T08:44:10.395Z,18.90
2022-09-03T08:47:05.813Z,19.40
2022-09-03T08:49:59.397Z,19.80
2022-09-03T08:52:46.538Z,19.90
2022-09-03T08:55:18.789Z,19.70
2022-09-03T08:57:51.414Z,19.80
2022-09-03T09:00:18.395Z,20.80
2022-09-03T09:03:09.808Z,21.00
2022-09-03T09:06:06.578Z,21.80
2022-09-03T09:08:45.734Z,22.50
2022-09-03T09:11:27.209Z,23.90
2022-09-03T09:14:04.170Z,23.50
2022-09-03T09:16:42.779Z,24.40
2022-09-03T09:19:57.413Z,25.50
2022-09-03T09:22:30.506Z,26.30
2022-09-03T09:25:01.535Z,25.20
2022-09-03T09:27:29.131Z,25.60
2022-09-03T09:30:01.757Z,25.40
2022-09-03T09:32:29.266Z,25.60
2022-09-03T09:34:56.099Z,25.20
2022-09-03T09:37:22.919Z,25.30
2022-09-03T09:39:59.008Z,25.50
2022-09-03T09:42:26.816Z,26.30
2022-09-03T09:44:53.651Z,26.10
2022-09-03T09:47:37.091Z,26.00
2022-09-03T09:50:15.311Z,25.70
2022-09-03T09:53:09.035Z,26.00
2022-09-03T09:55:35.868Z,27.40
2022-09-03T09:58:13.999Z,27.10
2022-09-03T10:00:41.209Z,27.00
2022-09-03T10:03:11.467Z,26.90
2022-09-03T10:05:38.417Z,27.50
2022-09-03T10:08:07.636Z,27.40
2022-09-03T10:10:48.124Z,27.80
2022-09-03T10:13:30.798Z,27.30
2022-09-03T10:16:20.050Z,27.70
2022-09-03T10:19:20.711Z,28.00
2022-09-03T10:22:07.620Z,28.10
2022-09-03T10:25:02.533Z,28.20
2022-09-03T10:27:29.351Z,26.40
2022-09-03T10:29:59.020Z,26.80
2022-09-03T10:32:39.338Z,27.40
2022-09-03T10:35:18.938Z,26.50
2022-09-03T10:37:49.938Z,26.20
2022-09-03T10:40:25.040Z,25.10
2022-09-03T10:43:00.576Z,26.00
2022-09-03T10:45:56.986Z,26.50
2022-09-03T10:48:23.834Z,26.00
2022-09-03T10:51:06.129Z,26.00
2022-09-03T10:54:06.810Z,25.50
2022-09-03T10:57:00.429Z,26.00
2022-09-03T10:59:58.018Z,26.40
2022-09-03T11:03:07.527Z,26.00
2022-09-03T11:06:04.732Z,24.80
2022-09-03T11:08:40.595Z,24.00
2022-09-03T11:11:16.762Z,24.00
2022-09-03T11:13:55.182Z,23.50
2022-09-03T11:16:26.620Z,23.70
2022-09-03T11:18:57.842Z,23.10
2022-09-03T11:21:28.566Z,23.10
2022-09-03T11:24:14.703Z,22.70
2022-09-03T11:26:45.583Z,23.20
2022-09-03T11:29:18.502Z,23.50
2022-09-03T11:32:05.651Z,23.00
2022-09-03T11:34:45.046Z,23.20
2022-09-03T11:37:19.651Z,23.80
2022-09-03T11:40:05.996Z,23.20
2022-09-03T11:42:40.405Z,22.80
2022-09-03T11:45:24.234Z,22.60
2022-09-03T11:47:52.205Z,22.90
2022-09-03T11:50:22.248Z,23.10
2022-09-03T11:52:54.277Z,22.80
2022-09-03T11:56:03.513Z,22.70
2022-09-03T11:58:36.574Z,23.80
2022-09-03T12:01:14.998Z,24.40
2022-09-03T12:03:42.986Z,23.80
2022-09-03T12:06:13.175Z,23.40
2022-09-03T12:08:44.957Z,22.90
2022-09-03T12:11:44.280Z,22.40
2022-09-03T12:14:45.607Z,22.80
2022-09-03T12:17:53.008Z,24.30
2022-09-03T12:20:19.784Z,24.10
2022-09-03T12:22:46.584Z,23.40
2022-09-03T12:25:15.454Z,23.50
2022-09-03T12:27:45.543Z,24.40
2022-09-03T12:30:22.277Z,25.10
2022-09-03T12:32:49.070Z,25.70
2022-09-03T12:38:06.527Z,24.50
2022-09-03T12:40:35.458Z,24.50
2022-09-03T12:43:49.022Z,24.30
2022-09-03T12:46:16.014Z,24.30
2022-09-03T12:51:51.256Z,23.40
2022-09-03T12:54:21.178Z,23.50
2022-09-03T12:56:56.712Z,23.40
2022-09-03T12:59:26.655Z,23.20
2022-09-03T13:01:57.592Z,23.10
2022-09-03T13:04:33.590Z,23.30
2022-09-03T13:07:13.857Z,23.60
2022-09-03T13:09:42.121Z,23.80
2022-09-03T13:12:21.820Z,23.80
2022-09-03T13:14:52.754Z,23.60
2022-09-03T13:17:19.608Z,23.80
2022-09-03T13:20:07.462Z,23.90
2022-09-03T13:22:57.206Z,23.30
2022-09-03T13:25:34.054Z,22.90
2022-09-03T13:28:44.754Z,22.70
2022-09-03T13:31:35.408Z,23.20
2022-09-03T13:34:28.336Z,23.30
2022-09-03T13:37:07.666Z,23.50
2022-09-03T13:39:49.592Z,23.30
2022-09-03T13:42:39.326Z,23.20
2022-09-03T13:45:13.163Z,23.10
2022-09-03T13:47:52.464Z,23.00
2022-09-03T13:50:22.168Z,23.00
2022-09-03T13:52:52.093Z,23.10
2022-09-03T13:55:26.252Z,22.80
2022-09-03T13:58:01.012Z,22.50
2022-09-03T14:00:46.209Z,22.50
2022-09-03T14:03:32.338Z,22.40
2022-09-03T14:06:20.931Z,22.30
2022-09-03T14:08:50.431Z,22.50
2022-09-03T14:11:59.184Z,22.60
2022-09-03T14:14:41.032Z,23.00
2022-09-03T14:17:13.885Z,23.10
2022-09-03T14:19:58.108Z,23.50
2022-09-03T14:22:32.997Z,23.10
2022-09-03T14:25:15.390Z,23.30
2022-09-03T14:27:42.530Z,23.50
2022-09-03T14:30:20.548Z,23.90
2022-09-03T14:33:04.677Z,24.10
2022-09-03T14:36:02.547Z,24.50
2022-09-03T14:38:53.370Z,24.70
2022-09-03T14:41:33.647Z,24.80
2022-09-03T14:44:15.205Z,24.80
2022-09-03T14:46:50.866Z,24.70
2022-09-03T14:49:55.227Z,24.80
2022-09-03T14:52:43.660Z,24.60
2022-09-03T14:55:42.509Z,25.10
2022-09-03T14:58:39.302Z,25.10
2022-09-03T15:01:16.797Z,25.10
2022-09-03T15:04:13.463Z,24.70
2022-09-03T15:06:48.902Z,24.50
2022-09-03T15:09:28.757Z,24.60
2022-09-03T15:12:06.402Z,24.70
2022-09-03T15:14:55.894Z,24.00
2022-09-03T15:17:49.414Z,23.30
2022-09-03T15:20:43.517Z,22.80
2022-09-03T15:23:23.276Z,22.80
2022-09-03T15:26:21.139Z,22.70
2022-09-03T15:29:09.724Z,22.50
2022-09-03T15:31:42.335Z,22.20
2022-09-03T15:34:14.969Z,22.30
2022-09-03T15:36:46.746Z,22.40
2022-09-03T15:39:23.328Z,22.20
2022-09-03T15:41:59.573Z,22.30
2022-09-03T15:44:34.990Z,22.20
2022-09-03T15:47:28.363Z,22.30
2022-09-03T15:52:37.406Z,22.00
2022-09-03T15:55:11.107Z,21.90
2022-09-03T15:57:54.642Z,21.80
2022-09-03T16:00:22.870Z,21.80
2022-09-03T16:02:52.594Z,22.70
2022-09-03T16:05:38.108Z,22.30
2022-09-03T16:08:18.316Z,22.20
2022-09-03T16:11:16.025Z,21.80
2022-09-03T16:14:03.045Z,21.70
2022-09-03T16:16:44.563Z,21.70
2022-09-03T16:19:42.001Z,21.50
2022-09-03T16:22:26.991Z,21.40
2022-09-03T16:24:55.414Z,21.20
2022-09-03T16:27:30.566Z,21.10
2022-09-03T16:30:12.844Z,21.20
2022-09-03T16:33:01.655Z,21.00
2022-09-03T16:35:47.023Z,20.90
2022-09-03T16:38:41.637Z,20.90
2022-09-03T16:41:24.601Z,20.90
2022-09-03T16:44:06.194Z,20.80
2022-09-03T16:46:53.867Z,20.70
2022-09-03T16:49:38.153Z,20.70
2022-09-03T16:52:38.659Z,20.60
2022-09-03T16:55:20.905Z,20.60
2022-09-03T16:58:24.980Z,20.60
2022-09-03T17:01:15.835Z,20.50
2022-09-03T17:04:19.771Z,20.40
2022-09-03T17:17:12.723Z,20.20
2022-09-03T17:20:01.671Z,20.00
2022-09-03T17:22:48.700Z,20.10
2022-09-03T17:25:37.409Z,20.00
2022-09-03T17:28:12.999Z,19.90
2022-09-03T17:30:46.156Z,19.90
2022-09-03T17:33:21.662Z,19.80
2022-09-03T17:35:52.559Z,19.70
2022-09-03T17:38:41.063Z,19.70
2022-09-03T17:41:34.287Z,19.60
2022-09-03T17:44:04.241Z,19.60
2022-09-03T17:46:47.770Z,19.40
2022-09-03T17:49:26.061Z,19.40
2022-09-03T17:52:24.966Z,19.30
2022-09-03T17:54:58.150Z,19.30
2022-09-03T17:57:48.136Z,19.20
2022-09-03T18:00:34.628Z,19.20
2022-09-03T18:03:25.120Z,19.10
2022-09-03T18:05:58.035Z,19.20
2022-09-03T18:08:33.611Z,19.10
2022-09-03T18:11:22.533Z,19.00
2022-09-03T18:14:06.599Z,18.90
2022-09-03T18:25:47.978Z,18.80
2022-09-03T18:28:18.156Z,18.70
2022-09-03T18:30:47.028Z,18.70
2022-09-03T18:33:14.104Z,18.70
2022-09-03T18:35:44.137Z,18.70
2022-09-03T18:38:10.943Z,18.60
2022-09-03T18:40:59.139Z,18.60
2022-09-03T18:44:03.301Z,18.60
2022-09-03T18:48:02.256Z,18.40
2022-09-03T18:49:44.437Z,18.30
2022-09-03T18:52:17.382Z,18.30
2022-09-03T18:55:07.788Z,18.20
2022-09-03T18:58:06.266Z,18.10
2022-09-03T19:00:38.732Z,18.00
2022-09-03T19:03:21.801Z,18.00
2022-09-03T19:06:23.514Z,17.90
2022-09-03T19:08:55.156Z,17.80
2022-09-03T19:11:42.145Z,17.80
2022-09-03T19:14:53.455Z,17.70
2022-09-03T19:20:37.294Z,17.70
2022-09-03T19:23:04.247Z,17.60
2022-09-03T19:25:31.529Z,17.50
2022-09-03T19:28:21.262Z,17.50
2022-09-03T19:31:07.276Z,17.50
2022-09-03T19:33:49.957Z,17.50
2022-09-03T19:39:27.028Z,17.40
2022-09-03T19:42:06.393Z,17.30
2022-09-03T19:47:55.353Z,17.20
2022-09-03T19:50:31.933Z,17.10
2022-09-03T19:53:19.193Z,17.10
2022-09-03T19:55:49.358Z,17.10
2022-09-03T19:58:41.923Z,17.10
2022-09-03T20:01:09.473Z,17.10
2022-09-03T20:03:36.822Z,16.90
2022-09-03T20:06:10.729Z,16.90
2022-09-03T20:08:38.418Z,16.90
2022-09-03T20:11:06.854Z,16.80
2022-09-03T20:16:39.722Z,16.80
2022-09-03T20:19:23.805Z,16.70
2022-09-03T20:22:02.590Z,16.70
2022-09-03T20:24:36.905Z,16.60
2022-09-03T20:27:38.636Z,16.60
2022-09-03T20:30:16.737Z,16.60
2022-09-03T20:33:02.382Z,16.60
2022-09-03T20:36:08.630Z,16.50
2022-09-03T20:48:50.487Z,16.50
2022-09-03T20:51:20.653Z,16.40
2022-09-03T20:54:01.366Z,16.40
2022-09-03T20:56:45.693Z,16.40
2022-09-03T20:59:15.524Z,16.40
2022-09-03T21:02:10.688Z,16.40
2022-09-03T21:05:14.946Z,16.30
2022-09-03T21:08:16.600Z,16.30
2022-09-03T21:11:14.430Z,16.30
2022-09-03T21:17:28.291Z,16.20
2022-09-03T21:19:58.178Z,16.30
2022-09-03T21:22:33.812Z,16.20
2022-09-03T21:25:05.582Z,16.20
2022-09-03T21:27:45.452Z,16.20
2022-09-03T21:30:18.805Z,16.20
2022-09-03T21:32:56.771Z,16.20
2022-09-03T21:36:03.371Z,16.20
2022-09-03T21:38:44.112Z,16.10
2022-09-03T21:44:16.994Z,16.10
2022-09-03T21:46:52.822Z,16.10
2022-09-03T21:49:26.090Z,16.10
2022-09-03T21:52:06.829Z,16.10
2022-09-03T21:54:35.035Z,16.20
2022-09-03T21:57:22.489Z,16.10
2022-09-03T22:00:06.192Z,16.10
2022-09-03T22:02:34.773Z,16.10
2022-09-03T22:05:02.657Z,16.10
2022-09-03T22:07:54.355Z,16.10
2022-09-03T22:10:48.640Z,16.10
2022-09-03T22:13:27.607Z,16.20
2022-09-03T22:19:13.008Z,16.20
2022-09-03T22:21:53.913Z,16.20
2022-09-03T22:24:43.418Z,16.20
2022-09-03T22:27:36.046Z,16.20
2022-09-03T22:30:11.367Z,16.20
2022-09-03T22:35:36.004Z,16.10
2022-09-03T22:38:29.745Z,16.20
2022-09-03T22:41:15.045Z,16.10
2022-09-03T22:43:46.737Z,16.20
2022-09-03T22:46:27.075Z,16.20
2022-09-03T22:49:17.086Z,16.20
2022-09-03T22:52:09.058Z,16.20
2022-09-03T22:55:11.148Z,16.20
2022-09-03T23:00:52.753Z,16.20
2022-09-03T23:03:40.097Z,16.10
2022-09-03T23:09:05.398Z,16.20
2022-09-03T23:11:53.126Z,16.20
2022-09-03T23:14:36.682Z,16.30
2022-09-03T23:17:09.698Z,16.30
2022-09-03T23:19:44.839Z,16.20
2022-09-03T23:22:23.394Z,16.20
2022-09-03T23:24:59.882Z,16.30
2022-09-03T23:27:46.621Z,16.30
2022-09-03T23:30:13.591Z,16.30
2022-09-03T23:32:40.378Z,16.30
2022-09-03T23:35:13.391Z,16.30
2022-09-03T23:38:01.373Z,16.30
2022-09-03T23:40:32.651Z,16.30
2022-09-03T23:43:14.435Z,16.30
2022-09-03T23:46:12.832Z,16.30
2022-09-03T23:49:04.375Z,16.30
2022-09-03T23:51:48.495Z,16.30
2022-09-03T23:54:37.246Z,16.30
2022-09-03T23:57:22.553Z,16.30
